sensor_id;sensor_type;location;lat;lon;timestamp;temperature;humidity
50586;DHT22;36542;51.700;8.846;2024-01-30T00:01:51;5.10;99.90
50586;DHT22;36542;51.700;8.846;2024-01-30T00:04:16;5.20;99.90
50586;DHT22;36542;51.700;8.846;2024-01-30T00:06:43;5.20;99.90
50586;DHT22;36542;51.700;8.846;2024-01-30T00:09:09;5.20;99.90
50586;DHT22;36542;51.700;8.846;2024-01-30T00:11:39;5.20;99.90
50586;DHT22;36542;51.700;8.846;2024-01-30T00:14:04;5.20;99.90
50586;DHT22;36542;51.700;8.846;2024-01-30T00:16:30;5.30;99.90
50586;DHT22;36542;51.700;8.846;2024-01-30T00:18:56;5.30;99.90
50586;DHT22;36542;51.700;8.846;2024-01-30T00:21:22;5.30;99.90
50586;DHT22;36542;51.700;8.846;2024-01-30T00:23:48;5.30;99.90
50586;DHT22;36542;51.700;8.846;2024-01-30T00:26:14;5.20;99.90
50586;DHT22;36542;51.700;8.846;2024-01-30T00:28:42;5.10;99.90
50586;DHT22;36542;51.700;8.846;2024-01-30T00:31:08;5.00;99.90
50586;DHT22;36542;51.700;8.846;2024-01-30T00:33:40;5.00;99.90
50586;DHT22;36542;51.700;8.846;2024-01-30T00:36:07;5.00;99.90
50586;DHT22;36542;51.700;8.846;2024-01-30T00:38:33;5.00;99.90
50586;DHT22;36542;51.700;8.846;2024-01-30T00:40:58;5.00;99.90
50586;DHT22;36542;51.700;8.846;2024-01-30T00:43:24;5.10;99.90
50586;DHT22;36542;51.700;8.846;2024-01-30T00:45:52;5.10;99.90
50586;DHT22;36542;51.700;8.846;2024-01-30T00:48:18;5.10;99.90
50586;DHT22;36542;51.700;8.846;2024-01-30T00:50:44;5.10;99.90
50586;DHT22;36542;51.700;8.846;2024-01-30T00:53:10;5.10;99.90
50586;DHT22;36542;51.700;8.846;2024-01-30T00:55:35;5.00;99.90
50586;DHT22;36542;51.700;8.846;2024-01-30T00:58:01;4.90;99.90
50586;DHT22;36542;51.700;8.846;2024-01-30T01:00:27;4.90;99.90
50586;DHT22;36542;51.700;8.846;2024-01-30T01:02:55;4.90;99.90
50586;DHT22;36542;51.700;8.846;2024-01-30T01:05:21;5.00;99.90
50586;DHT22;36542;51.700;8.846;2024-01-30T01:07:46;4.90;99.90
50586;DHT22;36542;51.700;8.846;2024-01-30T01:10:14;5.00;99.90
50586;DHT22;36542;51.700;8.846;2024-01-30T01:12:39;4.90;99.90
50586;DHT22;36542;51.700;8.846;2024-01-30T01:15:06;4.90;99.90
50586;DHT22;36542;51.700;8.846;2024-01-30T01:17:34;4.90;99.90
50586;DHT22;36542;51.700;8.846;2024-01-30T01:20:00;4.90;99.90
50586;DHT22;36542;51.700;8.846;2024-01-30T01:22:25;4.80;99.90
50586;DHT22;36542;51.700;8.846;2024-01-30T01:24:51;4.90;99.90
50586;DHT22;36542;51.700;8.846;2024-01-30T01:27:17;4.90;99.90
50586;DHT22;36542;51.700;8.846;2024-01-30T01:29:42;5.00;99.90
50586;DHT22;36542;51.700;8.846;2024-01-30T01:32:08;5.00;99.90
50586;DHT22;36542;51.700;8.846;2024-01-30T01:34:34;5.10;99.90
50586;DHT22;36542;51.700;8.846;2024-01-30T01:36:59;5.10;99.90
50586;DHT22;36542;51.700;8.846;2024-01-30T01:39:25;5.20;99.90
50586;DHT22;36542;51.700;8.846;2024-01-30T01:41:51;5.20;99.90
50586;DHT22;36542;51.700;8.846;2024-01-30T01:44:18;5.20;99.90
50586;DHT22;36542;51.700;8.846;2024-01-30T01:46:44;5.20;99.90
50586;DHT22;36542;51.700;8.846;2024-01-30T01:49:10;5.10;99.90
50586;DHT22;36542;51.700;8.846;2024-01-30T01:51:36;5.10;99.90
50586;DHT22;36542;51.700;8.846;2024-01-30T01:54:04;5.10;99.90
50586;DHT22;36542;51.700;8.846;2024-01-30T01:56:30;5.10;99.90
50586;DHT22;36542;51.700;8.846;2024-01-30T01:59:00;5.10;99.90
50586;DHT22;36542;51.700;8.846;2024-01-30T02:01:29;5.20;99.90
50586;DHT22;36542;51.700;8.846;2024-01-30T02:03:56;5.20;99.90
50586;DHT22;36542;51.700;8.846;2024-01-30T02:06:21;5.20;99.90
50586;DHT22;36542;51.700;8.846;2024-01-30T02:08:48;5.20;99.90
50586;DHT22;36542;51.700;8.846;2024-01-30T02:11:13;5.20;99.90
50586;DHT22;36542;51.700;8.846;2024-01-30T02:13:41;5.20;99.90
50586;DHT22;36542;51.700;8.846;2024-01-30T02:16:06;5.20;99.90
50586;DHT22;36542;51.700;8.846;2024-01-30T02:18:32;5.20;99.90
50586;DHT22;36542;51.700;8.846;2024-01-30T02:20:58;5.30;99.90
50586;DHT22;36542;51.700;8.846;2024-01-30T02:23:27;5.20;99.90
50586;DHT22;36542;51.700;8.846;2024-01-30T02:25:53;5.20;99.90
50586;DHT22;36542;51.700;8.846;2024-01-30T02:28:19;5.10;99.90
50586;DHT22;36542;51.700;8.846;2024-01-30T02:30:46;5.10;99.90
50586;DHT22;36542;51.700;8.846;2024-01-30T02:33:12;5.00;99.90
50586;DHT22;36542;51.700;8.846;2024-01-30T02:35:38;5.00;99.90
50586;DHT22;36542;51.700;8.846;2024-01-30T02:38:04;5.00;99.90
50586;DHT22;36542;51.700;8.846;2024-01-30T02:40:30;5.10;99.90
50586;DHT22;36542;51.700;8.846;2024-01-30T02:42:57;5.10;99.90
50586;DHT22;36542;51.700;8.846;2024-01-30T02:45:23;5.20;99.90
50586;DHT22;36542;51.700;8.846;2024-01-30T02:47:48;5.30;99.90
50586;DHT22;36542;51.700;8.846;2024-01-30T02:50:14;5.30;99.90
50586;DHT22;36542;51.700;8.846;2024-01-30T02:52:40;5.30;99.90
50586;DHT22;36542;51.700;8.846;2024-01-30T02:55:06;5.30;99.90
50586;DHT22;36542;51.700;8.846;2024-01-30T02:57:32;5.30;99.90
50586;DHT22;36542;51.700;8.846;2024-01-30T02:59:58;5.30;99.90
50586;DHT22;36542;51.700;8.846;2024-01-30T03:02:23;5.30;99.90
50586;DHT22;36542;51.700;8.846;2024-01-30T03:04:49;5.30;99.90
50586;DHT22;36542;51.700;8.846;2024-01-30T03:07:15;5.30;99.90
50586;DHT22;36542;51.700;8.846;2024-01-30T03:09:41;5.30;99.90
50586;DHT22;36542;51.700;8.846;2024-01-30T03:12:10;5.40;99.90
50586;DHT22;36542;51.700;8.846;2024-01-30T03:14:36;5.40;99.90
50586;DHT22;36542;51.700;8.846;2024-01-30T03:17:01;5.40;99.90
50586;DHT22;36542;51.700;8.846;2024-01-30T03:19:28;5.50;99.90
50586;DHT22;36542;51.700;8.846;2024-01-30T03:21:53;5.50;99.90
50586;DHT22;36542;51.700;8.846;2024-01-30T03:24:19;5.50;99.90
50586;DHT22;36542;51.700;8.846;2024-01-30T03:26:44;5.50;99.90
50586;DHT22;36542;51.700;8.846;2024-01-30T03:29:10;5.40;99.90
50586;DHT22;36542;51.700;8.846;2024-01-30T03:31:35;5.50;99.90
50586;DHT22;36542;51.700;8.846;2024-01-30T03:34:01;5.50;99.90
50586;DHT22;36542;51.700;8.846;2024-01-30T03:36:27;5.40;99.90
50586;DHT22;36542;51.700;8.846;2024-01-30T03:38:53;5.40;99.90
50586;DHT22;36542;51.700;8.846;2024-01-30T03:41:19;5.40;99.90
50586;DHT22;36542;51.700;8.846;2024-01-30T03:43:44;5.50;99.90
50586;DHT22;36542;51.700;8.846;2024-01-30T03:46:12;5.50;99.90
50586;DHT22;36542;51.700;8.846;2024-01-30T03:48:37;5.60;99.90
50586;DHT22;36542;51.700;8.846;2024-01-30T03:51:04;5.60;99.90
50586;DHT22;36542;51.700;8.846;2024-01-30T03:53:30;5.60;99.90
50586;DHT22;36542;51.700;8.846;2024-01-30T03:55:55;5.70;99.90
50586;DHT22;36542;51.700;8.846;2024-01-30T03:58:21;5.70;99.90
50586;DHT22;36542;51.700;8.846;2024-01-30T04:00:47;5.60;99.90
50586;DHT22;36542;51.700;8.846;2024-01-30T04:03:12;5.60;99.90
50586;DHT22;36542;51.700;8.846;2024-01-30T04:05:39;5.70;99.90
50586;DHT22;36542;51.700;8.846;2024-01-30T04:08:05;5.70;99.90
50586;DHT22;36542;51.700;8.846;2024-01-30T04:10:30;5.70;99.90
50586;DHT22;36542;51.700;8.846;2024-01-30T04:12:56;5.60;99.90
50586;DHT22;36542;51.700;8.846;2024-01-30T04:15:22;5.60;99.90
50586;DHT22;36542;51.700;8.846;2024-01-30T04:17:47;5.60;99.90
50586;DHT22;36542;51.700;8.846;2024-01-30T04:20:16;5.60;99.90
50586;DHT22;36542;51.700;8.846;2024-01-30T04:22:45;5.60;99.90
50586;DHT22;36542;51.700;8.846;2024-01-30T04:25:12;5.70;99.90
50586;DHT22;36542;51.700;8.846;2024-01-30T04:27:38;5.70;99.90
50586;DHT22;36542;51.700;8.846;2024-01-30T04:30:04;5.70;99.90
50586;DHT22;36542;51.700;8.846;2024-01-30T04:32:30;5.70;99.90
50586;DHT22;36542;51.700;8.846;2024-01-30T04:34:56;5.70;99.90
50586;DHT22;36542;51.700;8.846;2024-01-30T04:37:21;5.60;99.90
50586;DHT22;36542;51.700;8.846;2024-01-30T04:39:47;5.60;99.90
50586;DHT22;36542;51.700;8.846;2024-01-30T04:42:12;5.60;99.90
50586;DHT22;36542;51.700;8.846;2024-01-30T04:44:38;5.60;99.90
50586;DHT22;36542;51.700;8.846;2024-01-30T04:47:04;5.60;99.90
50586;DHT22;36542;51.700;8.846;2024-01-30T04:49:31;5.60;99.90
50586;DHT22;36542;51.700;8.846;2024-01-30T04:51:57;5.60;99.90
50586;DHT22;36542;51.700;8.846;2024-01-30T04:54:24;5.50;99.90
50586;DHT22;36542;51.700;8.846;2024-01-30T04:56:49;5.50;99.90
50586;DHT22;36542;51.700;8.846;2024-01-30T04:59:15;5.50;99.90
50586;DHT22;36542;51.700;8.846;2024-01-30T05:01:40;5.60;99.90
50586;DHT22;36542;51.700;8.846;2024-01-30T05:04:09;5.50;99.90
50586;DHT22;36542;51.700;8.846;2024-01-30T05:06:35;5.60;99.90
50586;DHT22;36542;51.700;8.846;2024-01-30T05:09:01;5.60;99.90
50586;DHT22;36542;51.700;8.846;2024-01-30T05:11:26;5.60;99.90
50586;DHT22;36542;51.700;8.846;2024-01-30T05:13:52;5.60;99.90
50586;DHT22;36542;51.700;8.846;2024-01-30T05:16:17;5.70;99.90
50586;DHT22;36542;51.700;8.846;2024-01-30T05:18:43;5.70;99.90
50586;DHT22;36542;51.700;8.846;2024-01-30T05:21:10;5.70;99.90
50586;DHT22;36542;51.700;8.846;2024-01-30T05:23:36;5.60;99.90
50586;DHT22;36542;51.700;8.846;2024-01-30T05:26:02;5.60;99.90
50586;DHT22;36542;51.700;8.846;2024-01-30T05:28:29;5.60;99.90
50586;DHT22;36542;51.700;8.846;2024-01-30T05:30:55;5.70;99.90
50586;DHT22;36542;51.700;8.846;2024-01-30T05:33:21;5.70;99.90
50586;DHT22;36542;51.700;8.846;2024-01-30T05:35:46;5.70;99.90
50586;DHT22;36542;51.700;8.846;2024-01-30T05:38:12;5.70;99.90
50586;DHT22;36542;51.700;8.846;2024-01-30T05:40:38;5.70;99.90
50586;DHT22;36542;51.700;8.846;2024-01-30T05:43:03;5.70;99.90
50586;DHT22;36542;51.700;8.846;2024-01-30T05:45:29;5.70;99.90
50586;DHT22;36542;51.700;8.846;2024-01-30T05:47:54;5.70;99.90
50586;DHT22;36542;51.700;8.846;2024-01-30T05:50:20;5.60;99.90
50586;DHT22;36542;51.700;8.846;2024-01-30T05:52:48;5.60;99.90
50586;DHT22;36542;51.700;8.846;2024-01-30T05:55:14;5.60;99.90
50586;DHT22;36542;51.700;8.846;2024-01-30T05:57:40;5.50;99.90
50586;DHT22;36542;51.700;8.846;2024-01-30T06:00:06;5.60;99.90
50586;DHT22;36542;51.700;8.846;2024-01-30T06:02:32;5.50;99.90
50586;DHT22;36542;51.700;8.846;2024-01-30T06:04:58;5.60;99.90
50586;DHT22;36542;51.700;8.846;2024-01-30T06:07:23;5.50;99.90
50586;DHT22;36542;51.700;8.846;2024-01-30T06:09:49;5.50;99.90
50586;DHT22;36542;51.700;8.846;2024-01-30T06:12:15;5.50;99.90
50586;DHT22;36542;51.700;8.846;2024-01-30T06:14:40;5.50;99.90
50586;DHT22;36542;51.700;8.846;2024-01-30T06:17:08;5.50;99.90
50586;DHT22;36542;51.700;8.846;2024-01-30T06:19:34;5.50;99.90
50586;DHT22;36542;51.700;8.846;2024-01-30T06:21:59;5.50;99.90
50586;DHT22;36542;51.700;8.846;2024-01-30T06:24:25;5.50;99.90
50586;DHT22;36542;51.700;8.846;2024-01-30T06:26:50;5.50;99.90
50586;DHT22;36542;51.700;8.846;2024-01-30T06:29:16;5.50;99.90
50586;DHT22;36542;51.700;8.846;2024-01-30T06:31:42;5.50;99.90
50586;DHT22;36542;51.700;8.846;2024-01-30T06:34:09;5.50;99.90
50586;DHT22;36542;51.700;8.846;2024-01-30T06:36:36;5.50;99.90
50586;DHT22;36542;51.700;8.846;2024-01-30T06:39:02;5.50;99.90
50586;DHT22;36542;51.700;8.846;2024-01-30T06:41:28;5.50;99.90
50586;DHT22;36542;51.700;8.846;2024-01-30T06:43:54;5.50;99.90
50586;DHT22;36542;51.700;8.846;2024-01-30T06:46:19;5.50;99.90
50586;DHT22;36542;51.700;8.846;2024-01-30T06:48:45;5.50;99.90
50586;DHT22;36542;51.700;8.846;2024-01-30T06:51:11;5.50;99.90
50586;DHT22;36542;51.700;8.846;2024-01-30T06:53:37;5.60;99.90
50586;DHT22;36542;51.700;8.846;2024-01-30T06:56:03;5.60;99.90
50586;DHT22;36542;51.700;8.846;2024-01-30T06:58:29;5.60;99.90
50586;DHT22;36542;51.700;8.846;2024-01-30T07:00:55;5.60;99.90
50586;DHT22;36542;51.700;8.846;2024-01-30T07:03:21;5.60;99.90
50586;DHT22;36542;51.700;8.846;2024-01-30T07:05:47;5.70;99.90
50586;DHT22;36542;51.700;8.846;2024-01-30T07:08:12;5.70;99.90
50586;DHT22;36542;51.700;8.846;2024-01-30T07:10:38;5.70;99.90
50586;DHT22;36542;51.700;8.846;2024-01-30T07:13:04;5.70;99.90
50586;DHT22;36542;51.700;8.846;2024-01-30T07:15:31;5.80;99.90
50586;DHT22;36542;51.700;8.846;2024-01-30T07:17:56;5.80;99.90
50586;DHT22;36542;51.700;8.846;2024-01-30T07:20:22;5.80;99.90
50586;DHT22;36542;51.700;8.846;2024-01-30T07:22:47;5.80;99.90
50586;DHT22;36542;51.700;8.846;2024-01-30T07:25:13;5.80;99.90
50586;DHT22;36542;51.700;8.846;2024-01-30T07:27:39;5.90;99.90
50586;DHT22;36542;51.700;8.846;2024-01-30T07:30:05;5.90;99.90
50586;DHT22;36542;51.700;8.846;2024-01-30T07:32:30;6.00;99.90
50586;DHT22;36542;51.700;8.846;2024-01-30T07:34:57;6.10;99.90
50586;DHT22;36542;51.700;8.846;2024-01-30T07:37:22;6.10;99.90
50586;DHT22;36542;51.700;8.846;2024-01-30T07:39:48;6.10;99.90
50586;DHT22;36542;51.700;8.846;2024-01-30T07:42:13;6.10;99.90
50586;DHT22;36542;51.700;8.846;2024-01-30T07:44:39;6.20;99.90
50586;DHT22;36542;51.700;8.846;2024-01-30T07:47:05;6.20;99.90
50586;DHT22;36542;51.700;8.846;2024-01-30T07:49:30;6.20;99.90
50586;DHT22;36542;51.700;8.846;2024-01-30T07:51:56;6.20;99.90
50586;DHT22;36542;51.700;8.846;2024-01-30T07:54:21;6.30;99.90
50586;DHT22;36542;51.700;8.846;2024-01-30T07:56:47;6.30;99.90
50586;DHT22;36542;51.700;8.846;2024-01-30T07:59:12;6.30;99.90
50586;DHT22;36542;51.700;8.846;2024-01-30T08:01:38;6.40;99.90
50586;DHT22;36542;51.700;8.846;2024-01-30T08:04:04;6.40;99.90
50586;DHT22;36542;51.700;8.846;2024-01-30T08:06:29;6.40;99.90
50586;DHT22;36542;51.700;8.846;2024-01-30T08:08:55;6.40;99.90
50586;DHT22;36542;51.700;8.846;2024-01-30T08:11:22;6.40;99.90
50586;DHT22;36542;51.700;8.846;2024-01-30T08:13:54;6.40;99.90
50586;DHT22;36542;51.700;8.846;2024-01-30T08:16:20;6.40;99.90
50586;DHT22;36542;51.700;8.846;2024-01-30T08:18:45;6.40;99.90
50586;DHT22;36542;51.700;8.846;2024-01-30T08:21:11;6.50;99.90
50586;DHT22;36542;51.700;8.846;2024-01-30T08:23:38;6.50;99.90
50586;DHT22;36542;51.700;8.846;2024-01-30T08:26:04;6.60;99.90
50586;DHT22;36542;51.700;8.846;2024-01-30T08:28:29;6.60;99.90
50586;DHT22;36542;51.700;8.846;2024-01-30T08:30:55;6.60;99.90
50586;DHT22;36542;51.700;8.846;2024-01-30T08:33:20;6.70;99.90
50586;DHT22;36542;51.700;8.846;2024-01-30T08:35:46;6.70;99.90
50586;DHT22;36542;51.700;8.846;2024-01-30T08:38:11;6.90;99.90
50586;DHT22;36542;51.700;8.846;2024-01-30T08:40:38;7.00;99.90
50586;DHT22;36542;51.700;8.846;2024-01-30T08:43:03;7.00;99.90
50586;DHT22;36542;51.700;8.846;2024-01-30T08:45:29;7.00;99.90
50586;DHT22;36542;51.700;8.846;2024-01-30T08:47:56;7.10;99.90
50586;DHT22;36542;51.700;8.846;2024-01-30T08:50:21;7.20;99.90
50586;DHT22;36542;51.700;8.846;2024-01-30T08:52:47;7.30;99.90
50586;DHT22;36542;51.700;8.846;2024-01-30T08:55:12;7.30;99.90
50586;DHT22;36542;51.700;8.846;2024-01-30T08:57:38;7.40;99.90
50586;DHT22;36542;51.700;8.846;2024-01-30T09:00:04;7.50;99.90
50586;DHT22;36542;51.700;8.846;2024-01-30T09:02:32;7.60;99.90
50586;DHT22;36542;51.700;8.846;2024-01-30T09:04:57;7.60;99.90
50586;DHT22;36542;51.700;8.846;2024-01-30T09:07:23;7.70;99.90
50586;DHT22;36542;51.700;8.846;2024-01-30T09:09:49;7.70;99.90
50586;DHT22;36542;51.700;8.846;2024-01-30T09:12:14;7.70;99.90
50586;DHT22;36542;51.700;8.846;2024-01-30T09:14:40;7.70;99.90
50586;DHT22;36542;51.700;8.846;2024-01-30T09:17:06;7.80;99.90
50586;DHT22;36542;51.700;8.846;2024-01-30T09:19:32;7.90;99.90
50586;DHT22;36542;51.700;8.846;2024-01-30T09:21:57;8.10;99.90
50586;DHT22;36542;51.700;8.846;2024-01-30T09:24:23;8.50;99.90
50586;DHT22;36542;51.700;8.846;2024-01-30T09:26:48;9.00;99.90
50586;DHT22;36542;51.700;8.846;2024-01-30T09:29:14;9.60;99.90
50586;DHT22;36542;51.700;8.846;2024-01-30T09:31:46;9.80;99.90
50586;DHT22;36542;51.700;8.846;2024-01-30T09:34:12;9.90;99.90
50586;DHT22;36542;51.700;8.846;2024-01-30T09:36:37;9.70;99.90
50586;DHT22;36542;51.700;8.846;2024-01-30T09:39:03;9.50;99.90
50586;DHT22;36542;51.700;8.846;2024-01-30T09:41:29;9.60;99.90
50586;DHT22;36542;51.700;8.846;2024-01-30T09:43:57;9.40;99.90
50586;DHT22;36542;51.700;8.846;2024-01-30T09:46:26;9.50;99.90
50586;DHT22;36542;51.700;8.846;2024-01-30T09:48:55;9.70;99.90
50586;DHT22;36542;51.700;8.846;2024-01-30T09:51:22;10.10;99.90
50586;DHT22;36542;51.700;8.846;2024-01-30T09:53:49;10.30;99.90
50586;DHT22;36542;51.700;8.846;2024-01-30T09:56:14;10.50;99.90
50586;DHT22;36542;51.700;8.846;2024-01-30T09:58:40;10.60;99.90
50586;DHT22;36542;51.700;8.846;2024-01-30T10:01:06;10.80;99.90
50586;DHT22;36542;51.700;8.846;2024-01-30T10:03:32;10.70;99.90
50586;DHT22;36542;51.700;8.846;2024-01-30T10:05:57;10.70;99.90
50586;DHT22;36542;51.700;8.846;2024-01-30T10:08:23;10.80;99.90
50586;DHT22;36542;51.700;8.846;2024-01-30T10:10:49;10.80;99.90
50586;DHT22;36542;51.700;8.846;2024-01-30T10:13:18;10.90;99.90
50586;DHT22;36542;51.700;8.846;2024-01-30T10:15:44;11.00;99.90
50586;DHT22;36542;51.700;8.846;2024-01-30T10:18:10;10.90;99.90
50586;DHT22;36542;51.700;8.846;2024-01-30T10:20:36;10.70;99.90
50586;DHT22;36542;51.700;8.846;2024-01-30T10:23:02;10.50;99.90
50586;DHT22;36542;51.700;8.846;2024-01-30T10:25:30;10.50;99.90
50586;DHT22;36542;51.700;8.846;2024-01-30T10:27:56;10.40;99.90
50586;DHT22;36542;51.700;8.846;2024-01-30T10:30:22;10.20;99.90
50586;DHT22;36542;51.700;8.846;2024-01-30T10:32:48;10.10;99.90
50586;DHT22;36542;51.700;8.846;2024-01-30T10:35:15;9.90;99.90
50586;DHT22;36542;51.700;8.846;2024-01-30T10:37:43;9.70;99.90
50586;DHT22;36542;51.700;8.846;2024-01-30T10:40:13;9.70;99.90
50586;DHT22;36542;51.700;8.846;2024-01-30T10:42:42;9.70;99.90
50586;DHT22;36542;51.700;8.846;2024-01-30T10:45:09;9.70;99.90
50586;DHT22;36542;51.700;8.846;2024-01-30T10:47:43;9.70;99.90
50586;DHT22;36542;51.700;8.846;2024-01-30T10:50:09;9.60;99.90
50586;DHT22;36542;51.700;8.846;2024-01-30T10:52:36;9.70;99.90
50586;DHT22;36542;51.700;8.846;2024-01-30T10:55:04;9.80;99.90
50586;DHT22;36542;51.700;8.846;2024-01-30T10:57:34;9.90;99.90
50586;DHT22;36542;51.700;8.846;2024-01-30T11:00:12;9.90;99.90
50586;DHT22;36542;51.700;8.846;2024-01-30T11:02:46;10.00;99.90
50586;DHT22;36542;51.700;8.846;2024-01-30T11:05:13;10.20;99.90
50586;DHT22;36542;51.700;8.846;2024-01-30T11:07:41;10.40;99.90
50586;DHT22;36542;51.700;8.846;2024-01-30T11:10:07;10.70;99.90
50586;DHT22;36542;51.700;8.846;2024-01-30T11:12:38;11.30;99.90
50586;DHT22;36542;51.700;8.846;2024-01-30T11:15:13;11.90;99.90
50586;DHT22;36542;51.700;8.846;2024-01-30T11:20:16;13.00;99.90
50586;DHT22;36542;51.700;8.846;2024-01-30T11:22:42;13.30;99.90
50586;DHT22;36542;51.700;8.846;2024-01-30T11:25:12;13.40;99.90
50586;DHT22;36542;51.700;8.846;2024-01-30T11:27:38;13.50;99.90
50586;DHT22;36542;51.700;8.846;2024-01-30T11:30:04;13.70;99.90
50586;DHT22;36542;51.700;8.846;2024-01-30T11:32:30;13.90;99.90
50586;DHT22;36542;51.700;8.846;2024-01-30T11:34:56;13.80;99.90
50586;DHT22;36542;51.700;8.846;2024-01-30T11:37:25;13.50;99.90
50586;DHT22;36542;51.700;8.846;2024-01-30T11:39:51;13.40;99.90
50586;DHT22;36542;51.700;8.846;2024-01-30T11:42:19;13.30;99.90
50586;DHT22;36542;51.700;8.846;2024-01-30T11:44:48;13.30;99.90
50586;DHT22;36542;51.700;8.846;2024-01-30T11:47:14;13.20;99.90
50586;DHT22;36542;51.700;8.846;2024-01-30T11:49:40;13.20;99.90
50586;DHT22;36542;51.700;8.846;2024-01-30T11:52:05;13.00;99.90
50586;DHT22;36542;51.700;8.846;2024-01-30T11:54:31;12.90;99.90
50586;DHT22;36542;51.700;8.846;2024-01-30T11:56:57;13.00;99.90
50586;DHT22;36542;51.700;8.846;2024-01-30T11:59:23;13.10;99.90
50586;DHT22;36542;51.700;8.846;2024-01-30T12:01:48;13.10;99.90
50586;DHT22;36542;51.700;8.846;2024-01-30T12:04:15;13.30;99.90
50586;DHT22;36542;51.700;8.846;2024-01-30T12:06:40;13.40;99.90
50586;DHT22;36542;51.700;8.846;2024-01-30T12:09:06;13.30;99.90
50586;DHT22;36542;51.700;8.846;2024-01-30T12:11:48;13.20;99.90
50586;DHT22;36542;51.700;8.846;2024-01-30T12:14:16;13.20;99.90
50586;DHT22;36542;51.700;8.846;2024-01-30T12:16:42;13.20;99.90
50586;DHT22;36542;51.700;8.846;2024-01-30T12:19:08;13.10;99.90
50586;DHT22;36542;51.700;8.846;2024-01-30T12:21:34;13.00;99.90
50586;DHT22;36542;51.700;8.846;2024-01-30T12:24:00;12.70;99.90
50586;DHT22;36542;51.700;8.846;2024-01-30T12:26:26;12.70;99.90
50586;DHT22;36542;51.700;8.846;2024-01-30T12:28:55;12.70;99.90
50586;DHT22;36542;51.700;8.846;2024-01-30T12:31:32;12.70;99.90
50586;DHT22;36542;51.700;8.846;2024-01-30T12:33:59;12.80;99.90
50586;DHT22;36542;51.700;8.846;2024-01-30T12:36:25;12.80;99.90
50586;DHT22;36542;51.700;8.846;2024-01-30T12:38:51;12.80;99.90
50586;DHT22;36542;51.700;8.846;2024-01-30T12:41:17;12.80;99.90
50586;DHT22;36542;51.700;8.846;2024-01-30T12:43:42;12.80;99.90
50586;DHT22;36542;51.700;8.846;2024-01-30T12:46:08;12.60;99.90
50586;DHT22;36542;51.700;8.846;2024-01-30T12:48:34;12.50;99.90
50586;DHT22;36542;51.700;8.846;2024-01-30T12:50:59;12.40;99.90
50586;DHT22;36542;51.700;8.846;2024-01-30T12:53:25;12.30;99.90
50586;DHT22;36542;51.700;8.846;2024-01-30T12:55:50;12.30;99.90
50586;DHT22;36542;51.700;8.846;2024-01-30T12:58:16;12.20;99.90
50586;DHT22;36542;51.700;8.846;2024-01-30T13:00:42;12.30;99.90
50586;DHT22;36542;51.700;8.846;2024-01-30T13:03:09;12.30;99.90
50586;DHT22;36542;51.700;8.846;2024-01-30T13:05:35;12.30;99.90
50586;DHT22;36542;51.700;8.846;2024-01-30T13:08:01;12.30;99.90
50586;DHT22;36542;51.700;8.846;2024-01-30T13:10:27;12.30;99.90
50586;DHT22;36542;51.700;8.846;2024-01-30T13:12:53;12.40;99.90
50586;DHT22;36542;51.700;8.846;2024-01-30T13:15:18;12.30;99.90
50586;DHT22;36542;51.700;8.846;2024-01-30T13:17:44;12.40;99.90
50586;DHT22;36542;51.700;8.846;2024-01-30T13:20:13;12.40;99.90
50586;DHT22;36542;51.700;8.846;2024-01-30T13:22:43;12.40;99.90
50586;DHT22;36542;51.700;8.846;2024-01-30T13:25:08;12.40;99.90
50586;DHT22;36542;51.700;8.846;2024-01-30T13:27:34;12.50;99.90
50586;DHT22;36542;51.700;8.846;2024-01-30T13:30:00;12.50;99.90
50586;DHT22;36542;51.700;8.846;2024-01-30T13:32:25;12.40;99.90
50586;DHT22;36542;51.700;8.846;2024-01-30T13:34:51;12.40;99.90
50586;DHT22;36542;51.700;8.846;2024-01-30T13:37:17;12.30;99.90
50586;DHT22;36542;51.700;8.846;2024-01-30T13:39:42;12.30;99.90
50586;DHT22;36542;51.700;8.846;2024-01-30T13:42:08;12.30;99.90
50586;DHT22;36542;51.700;8.846;2024-01-30T13:44:35;12.30;99.90
50586;DHT22;36542;51.700;8.846;2024-01-30T13:47:01;12.20;99.90
50586;DHT22;36542;51.700;8.846;2024-01-30T13:49:26;12.20;99.90
50586;DHT22;36542;51.700;8.846;2024-01-30T13:51:52;12.20;99.90
50586;DHT22;36542;51.700;8.846;2024-01-30T13:54:18;12.20;99.90
50586;DHT22;36542;51.700;8.846;2024-01-30T13:56:43;12.20;99.90
50586;DHT22;36542;51.700;8.846;2024-01-30T13:59:09;12.10;99.90
50586;DHT22;36542;51.700;8.846;2024-01-30T14:01:34;12.00;99.90
50586;DHT22;36542;51.700;8.846;2024-01-30T14:04:00;12.00;99.90
50586;DHT22;36542;51.700;8.846;2024-01-30T14:06:25;12.00;99.90
50586;DHT22;36542;51.700;8.846;2024-01-30T14:08:51;12.00;99.90
50586;DHT22;36542;51.700;8.846;2024-01-30T14:11:16;11.90;99.90
50586;DHT22;36542;51.700;8.846;2024-01-30T14:13:42;11.80;99.90
50586;DHT22;36542;51.700;8.846;2024-01-30T14:16:07;11.80;99.90
50586;DHT22;36542;51.700;8.846;2024-01-30T14:18:33;11.80;99.90
50586;DHT22;36542;51.700;8.846;2024-01-30T14:20:58;11.80;99.90
50586;DHT22;36542;51.700;8.846;2024-01-30T14:23:24;11.80;99.90
50586;DHT22;36542;51.700;8.846;2024-01-30T14:25:49;11.70;99.90
50586;DHT22;36542;51.700;8.846;2024-01-30T14:28:16;11.70;99.90
50586;DHT22;36542;51.700;8.846;2024-01-30T14:30:42;11.70;99.90
50586;DHT22;36542;51.700;8.846;2024-01-30T14:33:08;11.60;99.90
50586;DHT22;36542;51.700;8.846;2024-01-30T14:35:33;11.60;99.90
50586;DHT22;36542;51.700;8.846;2024-01-30T14:37:59;11.60;99.90
50586;DHT22;36542;51.700;8.846;2024-01-30T14:40:25;11.60;99.90
50586;DHT22;36542;51.700;8.846;2024-01-30T14:42:50;11.50;99.90
50586;DHT22;36542;51.700;8.846;2024-01-30T14:45:16;11.40;99.90
50586;DHT22;36542;51.700;8.846;2024-01-30T14:47:41;11.40;99.90
50586;DHT22;36542;51.700;8.846;2024-01-30T14:50:07;11.40;99.90
50586;DHT22;36542;51.700;8.846;2024-01-30T14:52:33;11.30;99.90
50586;DHT22;36542;51.700;8.846;2024-01-30T14:54:59;11.30;99.90
50586;DHT22;36542;51.700;8.846;2024-01-30T14:57:25;11.20;99.90
50586;DHT22;36542;51.700;8.846;2024-01-30T14:59:51;11.20;99.90
50586;DHT22;36542;51.700;8.846;2024-01-30T15:02:16;11.20;99.90
50586;DHT22;36542;51.700;8.846;2024-01-30T15:04:42;11.20;99.90
50586;DHT22;36542;51.700;8.846;2024-01-30T15:07:08;11.20;99.90
50586;DHT22;36542;51.700;8.846;2024-01-30T15:09:34;11.20;99.90
50586;DHT22;36542;51.700;8.846;2024-01-30T15:11:59;11.20;99.90
50586;DHT22;36542;51.700;8.846;2024-01-30T15:14:25;11.10;99.90
50586;DHT22;36542;51.700;8.846;2024-01-30T15:16:50;11.10;99.90
50586;DHT22;36542;51.700;8.846;2024-01-30T15:19:16;11.10;99.90
50586;DHT22;36542;51.700;8.846;2024-01-30T15:21:44;11.00;99.90
50586;DHT22;36542;51.700;8.846;2024-01-30T15:24:10;11.00;99.90
50586;DHT22;36542;51.700;8.846;2024-01-30T15:26:40;11.00;99.90
50586;DHT22;36542;51.700;8.846;2024-01-30T15:29:05;11.00;99.90
50586;DHT22;36542;51.700;8.846;2024-01-30T15:31:31;11.00;99.90
50586;DHT22;36542;51.700;8.846;2024-01-30T15:33:56;10.90;99.90
50586;DHT22;36542;51.700;8.846;2024-01-30T15:36:23;10.90;99.90